Time;durP1;ratioP1;P1;durP2;ratioP2;P2;SDS_P1;SDS_P2;PMS_P1;PMS_P2;Temp;Humidity;BMP_temperature;BMP_pressure;BME280_temperature;BME280_humidity;BME280_pressure;Samples;Min_cycle;Max_cycle;Signal;HPM_P1;HPM_P2
2024/02/24 00:00:37;;;;;;;5.78;1.17;;;10.60;99.90;;;;;;5032639;28;20042;-69
2024/02/24 00:03:03;;;;;;;2.67;1.20;;;10.60;99.90;;;;;;5032540;28;20539;-69
2024/02/24 00:05:29;;;;;;;3.97;1.40;;;10.60;99.90;;;;;;5030960;28;20033;-69
2024/02/24 00:07:55;;;;;;;6.65;1.15;;;10.70;99.90;;;;;;5032419;28;20032;-68
2024/02/24 00:10:21;;;;;;;4.32;0.93;;;10.70;99.90;;;;;;5031097;28;20025;-69
2024/02/24 00:12:47;;;;;;;3.55;1.00;;;10.70;99.90;;;;;;5032680;28;20080;-68
2024/02/24 00:15:13;;;;;;;5.70;1.15;;;10.70;99.90;;;;;;5032905;28;20061;-68
2024/02/24 00:17:39;;;;;;;3.38;1.13;;;10.70;99.90;;;;;;5032781;28;20124;-69
2024/02/24 00:20:09;;;;;;;2.78;0.98;;;10.70;99.90;;;;;;5032431;28;20033;-68
2024/02/24 00:22:36;;;;;;;4.15;1.20;;;10.70;99.90;;;;;;5032422;28;20041;-69
2024/02/24 00:25:02;;;;;;;5.32;1.20;;;10.70;99.90;;;;;;5032403;28;20113;-69
2024/02/24 00:27:28;;;;;;;7.68;0.88;;;10.70;99.90;;;;;;5032734;28;20112;-68
2024/02/24 00:29:54;;;;;;;3.42;0.90;;;10.70;99.90;;;;;;5032604;28;20410;-69
2024/02/24 00:32:20;;;;;;;2.30;0.80;;;10.70;99.90;;;;;;5032390;28;20117;-69
2024/02/24 00:34:46;;;;;;;6.07;0.90;;;10.70;99.90;;;;;;5032072;28;20091;-68
2024/02/24 00:37:12;;;;;;;2.30;0.90;;;10.70;99.90;;;;;;5032465;28;20040;-70
2024/02/24 00:39:38;;;;;;;6.47;1.10;;;10.70;99.90;;;;;;5032356;28;20455;-68
2024/02/24 00:42:04;;;;;;;7.40;1.10;;;10.70;99.90;;;;;;5032485;28;20120;-69
2024/02/24 00:44:30;;;;;;;3.42;1.02;;;10.70;99.90;;;;;;5032669;28;20029;-69
2024/02/24 00:46:56;;;;;;;3.88;1.20;;;10.70;99.90;;;;;;5032259;28;20025;-69
2024/02/24 00:49:22;;;;;;;6.60;1.52;;;10.70;99.90;;;;;;5032391;28;20029;-69
2024/02/24 00:51:48;;;;;;;6.95;1.27;;;10.70;99.90;;;;;;5032216;28;20054;-69
2024/02/24 00:54:14;;;;;;;4.15;1.00;;;10.60;99.90;;;;;;5032439;28;20151;-69
2024/02/24 00:56:40;;;;;;;8.52;1.00;;;10.60;99.90;;;;;;5034727;28;20022;-68
2024/02/24 00:59:06;;;;;;;3.75;0.98;;;10.60;99.90;;;;;;5036254;28;20033;-69
2024/02/24 01:01:32;;;;;;;2.35;0.90;;;10.60;99.90;;;;;;5035729;28;20042;-68
2024/02/24 01:03:57;;;;;;;3.35;0.70;;;10.60;99.90;;;;;;5035777;28;20010;-68
2024/02/24 01:06:23;;;;;;;5.38;0.90;;;10.60;99.90;;;;;;5035746;28;20032;-68
2024/02/24 01:08:49;;;;;;;8.48;0.90;;;10.70;99.90;;;;;;5034367;28;20112;-68
2024/02/24 01:11:15;;;;;;;4.18;0.70;;;10.60;99.90;;;;;;5035790;28;20029;-69
2024/02/24 01:13:42;;;;;;;2.88;0.73;;;10.60;99.90;;;;;;5035811;28;20025;-68
2024/02/24 01:16:08;;;;;;;5.53;1.00;;;10.60;99.90;;;;;;5035681;28;20029;-68
2024/02/24 01:18:34;;;;;;;8.05;1.23;;;10.70;99.90;;;;;;5035364;28;20390;-68
2024/02/24 01:21:02;;;;;;;4.38;1.13;;;10.70;99.90;;;;;;5035579;28;20068;-68
2024/02/24 01:23:27;;;;;;;12.27;2.55;;;10.70;99.90;;;;;;5035751;28;20100;-68
2024/02/24 01:25:53;;;;;;;6.55;1.10;;;10.70;99.90;;;;;;5035517;28;20137;-69
2024/02/24 01:28:20;;;;;;;8.95;0.80;;;10.60;99.90;;;;;;5035652;28;20045;-68
2024/02/24 01:30:46;;;;;;;4.70;0.90;;;10.60;99.90;;;;;;5035088;28;20028;-68
2024/02/24 01:33:12;;;;;;;9.38;1.30;;;10.60;99.90;;;;;;5034072;28;20029;-68
2024/02/24 01:35:37;;;;;;;8.50;0.90;;;10.60;99.90;;;;;;5035404;28;20026;-68
2024/02/24 01:38:04;;;;;;;2.58;0.77;;;10.60;99.90;;;;;;5035041;28;20045;-69
2024/02/24 01:40:31;;;;;;;3.70;0.90;;;10.60;99.90;;;;;;5034684;28;20425;-68
2024/02/24 01:42:57;;;;;;;10.75;1.00;;;10.60;99.90;;;;;;5035040;28;20493;-69
2024/02/24 01:45:23;;;;;;;9.88;1.83;;;10.60;99.90;;;;;;5034867;28;20052;-68
2024/02/24 01:47:52;;;;;;;4.38;1.45;;;10.60;99.90;;;;;;5035089;28;20437;-69
2024/02/24 01:50:20;;;;;;;5.50;1.08;;;10.60;99.90;;;;;;5035104;28;20025;-69
2024/02/24 01:52:48;;;;;;;6.32;0.90;;;10.60;99.90;;;;;;5035014;28;20053;-69
2024/02/24 01:55:16;;;;;;;6.00;1.13;;;10.60;99.90;;;;;;5035202;28;20102;-68
2024/02/24 01:57:43;;;;;;;4.28;0.80;;;10.60;99.90;;;;;;5033909;28;20047;-68
2024/02/24 02:00:09;;;;;;;4.97;0.90;;;10.60;99.90;;;;;;5032133;28;20033;-68
2024/02/24 02:02:38;;;;;;;5.90;1.50;;;10.60;99.90;;;;;;5031955;28;20669;-69
2024/02/24 02:05:06;;;;;;;5.70;1.27;;;10.60;99.90;;;;;;5032957;28;20026;-68
2024/02/24 02:07:33;;;;;;;7.45;0.98;;;10.60;99.90;;;;;;5034136;28;20034;-68
2024/02/24 02:09:59;;;;;;;5.60;1.00;;;10.60;99.90;;;;;;5034658;28;20414;-69
2024/02/24 02:12:26;;;;;;;3.85;0.88;;;10.60;99.90;;;;;;5034527;28;20482;-68
2024/02/24 02:14:52;;;;;;;7.03;1.35;;;10.60;99.90;;;;;;5034027;28;20478;-69
2024/02/24 02:17:19;;;;;;;3.50;0.95;;;10.60;99.90;;;;;;5034357;28;20025;-69
2024/02/24 02:19:45;;;;;;;4.65;1.00;;;10.60;99.90;;;;;;5034326;28;20029;-68
2024/02/24 02:22:14;;;;;;;4.78;0.90;;;10.50;99.90;;;;;;5034183;28;20072;-69
2024/02/24 02:24:40;;;;;;;7.85;1.42;;;10.50;99.90;;;;;;5034189;28;20033;-69
2024/02/24 02:27:06;;;;;;;4.10;1.08;;;10.50;99.90;;;;;;5034176;28;20030;-68
2024/02/24 02:29:35;;;;;;;4.85;1.10;;;10.40;99.90;;;;;;5033979;28;20060;-68
2024/02/24 02:32:01;;;;;;;3.60;1.10;;;10.40;99.90;;;;;;5034408;28;20064;-69
2024/02/24 02:34:27;;;;;;;7.70;1.30;;;10.40;99.90;;;;;;5034481;28;20057;-69
2024/02/24 02:36:53;;;;;;;9.48;1.25;;;10.40;99.90;;;;;;5033691;28;20036;-69
2024/02/24 02:39:19;;;;;;;7.85;1.15;;;10.40;99.90;;;;;;5033831;28;20128;-69
2024/02/24 02:41:45;;;;;;;10.45;1.20;;;10.40;99.90;;;;;;5033829;28;20121;-68
2024/02/24 02:44:10;;;;;;;5.07;1.00;;;10.40;99.90;;;;;;5034066;28;20017;-68
2024/02/24 02:46:36;;;;;;;12.85;1.40;;;10.30;99.90;;;;;;5034127;28;20025;-69
2024/02/24 02:49:02;;;;;;;8.40;1.48;;;10.30;99.90;;;;;;5034010;28;20087;-69
2024/02/24 02:51:28;;;;;;;7.53;1.10;;;10.30;99.90;;;;;;5034102;28;20100;-69
2024/02/24 02:53:53;;;;;;;8.50;1.10;;;10.30;99.90;;;;;;5034054;28;20021;-68
2024/02/24 02:56:20;;;;;;;6.30;1.20;;;10.20;99.90;;;;;;5033859;28;20087;-68
2024/02/24 02:58:47;;;;;;;7.30;1.30;;;10.20;99.90;;;;;;5033687;28;20021;-69
2024/02/24 03:01:13;;;;;;;6.95;1.30;;;10.10;99.90;;;;;;5033488;28;20026;-69
2024/02/24 03:03:39;;;;;;;10.30;1.50;;;10.10;99.90;;;;;;5033626;28;20033;-68
2024/02/24 03:06:05;;;;;;;12.57;1.88;;;10.10;99.90;;;;;;5033544;28;20385;-69
2024/02/24 03:08:34;;;;;;;14.15;2.45;;;10.10;99.90;;;;;;5033702;28;20525;-68
2024/02/24 03:11:04;;;;;;;15.15;2.05;;;10.00;99.90;;;;;;5033551;28;20101;-68
2024/02/24 03:13:30;;;;;;;9.25;2.03;;;10.00;99.90;;;;;;5033469;28;20029;-69
2024/02/24 03:15:56;;;;;;;12.57;1.90;;;10.00;99.90;;;;;;5033488;28;20454;-68
2024/02/24 03:18:21;;;;;;;10.30;1.40;;;10.00;99.90;;;;;;5032806;28;20025;-69
2024/02/24 03:20:47;;;;;;;16.70;2.20;;;9.90;99.90;;;;;;5033209;28;20104;-69
2024/02/24 03:23:14;;;;;;;8.93;1.73;;;9.90;99.90;;;;;;5033473;28;20116;-69
2024/02/24 03:25:40;;;;;;;11.45;2.00;;;10.00;99.90;;;;;;5032071;28;20032;-68
2024/02/24 03:28:06;;;;;;;13.77;1.60;;;10.00;99.90;;;;;;5033208;28;20033;-68
2024/02/24 03:30:32;;;;;;;9.77;2.20;;;10.00;99.90;;;;;;5032988;28;20029;-68
2024/02/24 03:32:57;;;;;;;14.43;2.00;;;10.00;99.90;;;;;;5033343;28;20036;-68
2024/02/24 03:35:23;;;;;;;16.75;2.10;;;10.00;99.90;;;;;;5032974;28;20030;-68
2024/02/24 03:37:50;;;;;;;12.55;2.03;;;10.10;99.90;;;;;;5032971;28;20080;-68
2024/02/24 03:40:15;;;;;;;8.80;1.55;;;10.10;99.90;;;;;;5032648;28;20409;-68
2024/02/24 03:42:41;;;;;;;16.87;1.87;;;10.10;99.90;;;;;;5033140;28;20041;-69
2024/02/24 03:45:08;;;;;;;14.65;2.03;;;10.10;99.90;;;;;;5033012;28;20120;-68
2024/02/24 03:47:33;;;;;;;10.70;1.65;;;10.10;99.90;;;;;;5031939;28;20064;-69
2024/02/24 03:49:59;;;;;;;9.73;1.65;;;10.10;99.90;;;;;;5033174;28;20056;-69
2024/02/24 03:52:25;;;;;;;9.25;1.77;;;10.10;99.90;;;;;;5033070;28;20033;-68
2024/02/24 03:54:51;;;;;;;10.90;1.65;;;10.00;99.90;;;;;;5032758;28;20103;-68
2024/02/24 03:57:16;;;;;;;11.85;1.73;;;10.10;99.90;;;;;;5032594;28;20057;-68
2024/02/24 03:59:42;;;;;;;13.55;1.88;;;10.10;99.90;;;;;;5032471;28;20037;-66
2024/02/24 04:02:08;;;;;;;17.70;1.85;;;10.10;99.90;;;;;;5032799;28;20485;-69
2024/02/24 04:04:34;;;;;;;5.75;1.58;;;10.10;99.90;;;;;;5032767;28;20033;-69
2024/02/24 04:06:59;;;;;;;12.73;1.48;;;10.10;99.90;;;;;;5032587;28;20071;-68
2024/02/24 04:09:25;;;;;;;10.07;1.80;;;10.00;99.90;;;;;;5032194;28;20026;-68
2024/02/24 04:11:52;;;;;;;10.77;1.48;;;10.00;99.90;;;;;;5031255;28;20052;-68
2024/02/24 04:14:18;;;;;;;11.50;2.38;;;10.00;99.90;;;;;;5032640;28;20104;-69
2024/02/24 04:16:44;;;;;;;10.20;2.03;;;10.00;99.90;;;;;;5032631;28;20426;-69
2024/02/24 04:19:10;;;;;;;15.05;2.30;;;10.00;99.90;;;;;;5032534;28;20068;-68
2024/02/24 04:21:35;;;;;;;13.50;1.80;;;10.00;99.90;;;;;;5032499;28;20096;-69
2024/02/24 04:24:01;;;;;;;12.60;1.85;;;10.00;99.90;;;;;;5032666;28;20373;-68
2024/02/24 04:26:27;;;;;;;15.23;1.92;;;10.00;99.90;;;;;;5032311;28;20033;-69
2024/02/24 04:28:53;;;;;;;15.18;1.70;;;10.00;99.90;;;;;;5030161;28;20036;-69
2024/02/24 04:31:18;;;;;;;9.82;2.40;;;10.00;99.90;;;;;;5033789;28;20081;-69
2024/02/24 04:33:44;;;;;;;14.48;2.03;;;9.90;99.90;;;;;;5035439;28;20021;-69
2024/02/24 04:36:10;;;;;;;10.40;2.05;;;9.90;99.90;;;;;;5036637;28;20030;-69
2024/02/24 04:38:35;;;;;;;12.90;1.70;;;9.90;99.90;;;;;;5035641;28;20033;-68
2024/02/24 04:41:01;;;;;;;9.18;1.60;;;9.90;99.90;;;;;;5035937;28;20115;-68
2024/02/24 04:43:27;;;;;;;11.55;1.92;;;9.90;99.90;;;;;;5036254;28;20026;-68
2024/02/24 04:45:53;;;;;;;20.27;2.80;;;9.90;99.90;;;;;;5036253;28;20084;-69
2024/02/24 04:48:19;;;;;;;13.32;2.08;;;9.90;99.90;;;;;;5036124;28;20039;-68
2024/02/24 04:50:44;;;;;;;12.02;1.50;;;9.90;99.90;;;;;;5035901;28;20030;-68
2024/02/24 04:53:10;;;;;;;15.35;1.80;;;10.00;99.90;;;;;;5034473;28;20087;-68
2024/02/24 04:55:36;;;;;;;12.90;1.83;;;10.00;99.90;;;;;;5033079;28;20051;-68
2024/02/24 04:58:02;;;;;;;19.63;2.78;;;10.00;99.90;;;;;;5033305;28;20021;-68
2024/02/24 05:00:27;;;;;;;9.45;1.77;;;10.00;99.90;;;;;;5035153;28;20086;-69
2024/02/24 05:02:53;;;;;;;12.40;1.85;;;10.10;99.90;;;;;;5035658;28;20078;-68
2024/02/24 05:05:19;;;;;;;15.82;1.70;;;10.10;99.90;;;;;;5035488;28;20058;-69
2024/02/24 05:07:45;;;;;;;12.13;2.03;;;10.10;99.90;;;;;;5035112;28;20065;-69
2024/02/24 05:10:10;;;;;;;14.02;1.92;;;10.10;99.90;;;;;;5035379;28;20022;-69
2024/02/24 05:12:36;;;;;;;13.02;1.85;;;10.10;99.90;;;;;;5035684;28;20022;-68
2024/02/24 05:15:02;;;;;;;9.65;1.80;;;10.10;99.90;;;;;;5035475;28;20068;-68
2024/02/24 05:17:28;;;;;;;12.07;1.90;;;10.10;99.90;;;;;;5035560;28;20025;-68
2024/02/24 05:19:53;;;;;;;14.77;1.67;;;10.10;99.90;;;;;;5035692;28;20696;-68
2024/02/24 05:22:20;;;;;;;12.55;1.70;;;10.10;99.90;;;;;;5035492;28;20072;-68
2024/02/24 05:24:46;;;;;;;12.48;2.13;;;10.10;99.90;;;;;;5035214;28;20057;-68
2024/02/24 05:27:12;;;;;;;7.30;1.45;;;10.10;99.90;;;;;;5035862;28;20127;-68
2024/02/24 05:29:44;;;;;;;13.68;1.90;;;10.10;99.90;;;;;;5035599;28;20096;-68
2024/02/24 05:32:10;;;;;;;16.35;1.75;;;10.10;99.90;;;;;;5035365;28;20021;-68
2024/02/24 05:34:36;;;;;;;13.25;1.75;;;10.10;99.90;;;;;;5035197;28;20036;-68
2024/02/24 05:37:02;;;;;;;11.30;1.95;;;10.00;99.90;;;;;;5033860;28;20036;-68
2024/02/24 05:39:28;;;;;;;13.20;2.08;;;10.00;99.90;;;;;;5034826;28;20076;-69
2024/02/24 05:41:53;;;;;;;13.60;1.40;;;10.10;99.90;;;;;;5034499;28;20042;-68
2024/02/24 05:44:19;;;;;;;12.43;1.48;;;10.10;99.90;;;;;;5035374;28;20022;-69
2024/02/24 05:46:45;;;;;;;10.75;1.90;;;10.10;99.90;;;;;;5035016;28;20026;-68
2024/02/24 05:49:11;;;;;;;12.45;1.80;;;10.10;99.90;;;;;;5035129;28;20029;-69
2024/02/24 05:51:38;;;;;;;9.90;1.73;;;10.10;99.90;;;;;;5035171;28;20029;-69
2024/02/24 05:54:04;;;;;;;15.70;2.25;;;10.10;99.90;;;;;;5034815;28;20021;-68
2024/02/24 05:56:30;;;;;;;11.80;1.88;;;10.10;99.90;;;;;;5034861;28;20128;-68
2024/02/24 05:58:55;;;;;;;10.80;1.95;;;10.10;99.90;;;;;;5035090;28;20470;-69
2024/02/24 06:01:21;;;;;;;14.20;2.17;;;10.10;99.90;;;;;;5034733;28;20065;-69
2024/02/24 06:03:47;;;;;;;19.48;2.80;;;10.10;99.90;;;;;;5034882;28;20025;-69
2024/02/24 06:06:13;;;;;;;9.27;1.70;;;10.10;99.90;;;;;;5034793;28;20072;-69
2024/02/24 06:08:38;;;;;;;14.40;2.38;;;10.00;99.90;;;;;;5033165;28;20027;-68
2024/02/24 06:11:04;;;;;;;16.27;2.50;;;10.10;99.90;;;;;;5035090;28;20050;-68
2024/02/24 06:13:30;;;;;;;18.90;2.50;;;10.10;99.90;;;;;;5034388;28;20033;-68
2024/02/24 06:15:56;;;;;;;16.92;2.58;;;10.00;99.90;;;;;;5033981;28;20029;-68
2024/02/24 06:18:23;;;;;;;16.08;2.08;;;10.00;99.90;;;;;;5034835;28;20025;-68
2024/02/24 06:20:49;;;;;;;15.30;2.55;;;10.10;99.90;;;;;;5034481;28;20627;-69
2024/02/24 06:23:15;;;;;;;15.65;2.38;;;10.10;99.90;;;;;;5034353;28;20037;-69
2024/02/24 06:25:41;;;;;;;17.15;3.03;;;10.10;99.90;;;;;;5034392;28;20032;-68
2024/02/24 06:28:10;;;;;;;14.95;2.80;;;10.10;99.90;;;;;;5034539;28;20117;-69
2024/02/24 06:30:37;;;;;;;17.33;2.67;;;10.10;99.90;;;;;;5034470;28;20108;-69
2024/02/24 06:33:05;;;;;;;18.23;2.25;;;10.10;99.90;;;;;;5033953;28;20029;-69
2024/02/24 06:35:31;;;;;;;18.98;3.17;;;10.10;99.90;;;;;;5034076;28;20038;-69
2024/02/24 06:37:57;;;;;;;18.52;2.83;;;10.10;99.90;;;;;;5034284;28;20014;-69
2024/02/24 06:40:23;;;;;;;15.85;2.78;;;10.10;99.90;;;;;;5033860;28;20069;-69
2024/02/24 06:42:48;;;;;;;13.32;2.50;;;10.10;99.90;;;;;;5034180;28;20030;-68
2024/02/24 06:45:14;;;;;;;14.85;3.05;;;10.10;99.90;;;;;;5034150;28;20073;-68
2024/02/24 06:47:40;;;;;;;17.63;2.30;;;10.20;99.90;;;;;;5034124;28;20048;-68
2024/02/24 06:50:06;;;;;;;16.88;2.45;;;10.20;99.90;;;;;;5034022;28;20022;-69
2024/02/24 06:52:32;;;;;;;20.42;2.55;;;10.20;99.90;;;;;;5033316;28;20040;-69
2024/02/24 06:55:00;;;;;;;22.15;3.08;;;10.20;99.90;;;;;;5033583;28;20049;-69
2024/02/24 06:57:26;;;;;;;13.77;2.70;;;10.20;99.90;;;;;;5033747;28;20351;-71
2024/02/24 06:59:52;;;;;;;12.82;2.83;;;10.30;99.90;;;;;;5033327;28;20120;-70
2024/02/24 07:02:18;;;;;;;13.73;3.40;;;10.30;99.90;;;;;;5033280;28;20064;-70
2024/02/24 07:04:44;;;;;;;13.27;3.08;;;10.30;99.90;;;;;;5033840;28;20374;-71
2024/02/24 07:07:10;;;;;;;20.05;4.35;;;10.30;99.90;;;;;;5033686;28;20072;-71
2024/02/24 07:09:36;;;;;;;16.73;3.70;;;10.30;99.90;;;;;;5033680;28;20033;-72
2024/02/24 07:12:02;;;;;;;20.13;3.40;;;10.30;99.90;;;;;;5033582;28;20462;-72
2024/02/24 07:14:29;;;;;;;29.40;4.20;;;10.30;99.90;;;;;;5033239;28;20029;-70
2024/02/24 07:16:54;;;;;;;13.88;3.28;;;10.30;99.90;;;;;;5033367;28;20120;-71
2024/02/24 07:19:20;;;;;;;13.88;3.40;;;10.40;99.90;;;;;;5033219;28;20097;-72
2024/02/24 07:21:46;;;;;;;21.52;3.47;;;10.40;99.90;;;;;;5033127;28;20041;-70
2024/02/24 07:24:13;;;;;;;20.33;3.05;;;10.40;99.90;;;;;;5033234;28;20032;-69
2024/02/24 07:26:45;;;;;;;24.25;3.13;;;10.40;99.90;;;;;;5033209;28;20466;-69
2024/02/24 07:29:11;;;;;;;16.33;2.83;;;10.40;99.90;;;;;;5033022;28;20501;-70
2024/02/24 07:31:37;;;;;;;15.68;3.45;;;10.40;99.90;;;;;;5032711;28;20052;-70
2024/02/24 07:34:03;;;;;;;15.85;3.28;;;10.40;99.90;;;;;;5033377;28;20394;-68
2024/02/24 07:36:29;;;;;;;16.55;2.97;;;10.40;99.90;;;;;;5033016;28;20028;-72
2024/02/24 07:38:58;;;;;;;16.60;2.60;;;10.50;99.90;;;;;;5031100;28;20025;-72
2024/02/24 07:41:24;;;;;;;19.38;2.72;;;10.50;99.90;;;;;;5030238;28;20037;-68
2024/02/24 07:43:50;;;;;;;16.27;3.42;;;10.50;99.90;;;;;;5030272;28;20025;-68
2024/02/24 07:46:34;;;;;;;17.80;3.10;;;10.50;99.90;;;;;;5030914;28;20099;-71
2024/02/24 07:49:00;;;;;;;20.33;3.08;;;10.60;99.90;;;;;;5032754;28;20032;-73
2024/02/24 07:51:27;;;;;;;17.25;2.67;;;10.60;99.90;;;;;;5032689;28;20061;-74
2024/02/24 07:53:53;;;;;;;15.93;2.70;;;10.60;99.90;;;;;;5031910;28;20454;-68
2024/02/24 07:56:23;;;;;;;16.30;3.05;;;10.60;99.90;;;;;;5032188;28;20017;-71
2024/02/24 07:58:52;;;;;;;15.32;2.75;;;10.60;99.90;;;;;;5032742;28;20116;-69
2024/02/24 08:01:18;;;;;;;15.93;2.55;;;10.60;99.90;;;;;;5032260;28;20139;-69
2024/02/24 08:03:44;;;;;;;20.58;3.28;;;10.60;99.90;;;;;;5032043;28;20048;-69
2024/02/24 08:06:10;;;;;;;15.55;3.63;;;10.70;99.90;;;;;;5032356;28;20084;-70
2024/02/24 08:08:36;;;;;;;17.13;3.55;;;10.70;99.90;;;;;;5031666;28;20034;-69
2024/02/24 08:11:03;;;;;;;14.73;2.72;;;10.70;99.90;;;;;;5031726;28;20025;-69
2024/02/24 08:13:29;;;;;;;17.02;2.88;;;10.70;99.90;;;;;;5032286;28;20030;-69
2024/02/24 08:15:55;;;;;;;13.63;2.72;;;10.70;99.90;;;;;;5030774;28;20044;-70
2024/02/24 08:18:22;;;;;;;14.60;3.38;;;10.70;99.90;;;;;;5029558;28;20029;-70
2024/02/24 08:20:48;;;;;;;17.50;3.45;;;10.80;99.90;;;;;;5029870;28;20025;-69
2024/02/24 08:23:14;;;;;;;11.18;2.47;;;10.70;99.90;;;;;;5032438;28;20037;-68
2024/02/24 08:25:40;;;;;;;12.70;2.63;;;10.80;99.90;;;;;;5032588;28;20033;-69
2024/02/24 08:28:06;;;;;;;14.38;2.20;;;10.80;99.90;;;;;;5032553;28;20034;-68
2024/02/24 08:30:32;;;;;;;17.77;3.33;;;10.80;99.90;;;;;;5032191;28;20120;-68
2024/02/24 08:32:58;;;;;;;14.07;2.78;;;10.80;99.90;;;;;;5032287;28;20056;-68
2024/02/24 08:35:24;;;;;;;14.98;2.88;;;10.80;99.90;;;;;;5032213;28;20025;-69
2024/02/24 08:37:49;;;;;;;13.77;2.50;;;10.80;99.90;;;;;;5030979;28;20026;-69
2024/02/24 08:40:15;;;;;;;20.77;3.10;;;10.80;99.90;;;;;;5032139;28;20049;-68
2024/02/24 08:42:41;;;;;;;13.10;2.83;;;10.80;99.90;;;;;;5032576;28;20124;-69
2024/02/24 08:45:07;;;;;;;9.95;2.28;;;10.90;99.90;;;;;;5032821;28;20036;-68
2024/02/24 08:47:33;;;;;;;12.07;2.55;;;10.90;99.90;;;;;;5031438;28;20040;-70
2024/02/24 08:49:58;;;;;;;12.45;2.08;;;11.00;99.90;;;;;;5032676;28;20032;-69
2024/02/24 08:52:24;;;;;;;17.77;2.38;;;11.00;99.90;;;;;;5032327;28;20037;-69
2024/02/24 08:54:50;;;;;;;11.82;2.15;;;11.00;99.90;;;;;;5032243;28;20049;-69
2024/02/24 08:57:16;;;;;;;12.02;2.22;;;11.00;99.90;;;;;;5032448;28;20025;-69
2024/02/24 08:59:42;;;;;;;13.55;2.28;;;11.00;99.90;;;;;;5032600;28;20101;-68
2024/02/24 09:02:08;;;;;;;12.50;2.95;;;11.00;99.90;;;;;;5032277;28;20434;-70
2024/02/24 09:04:38;;;;;;;13.95;2.42;;;11.00;99.90;;;;;;5032286;28;20030;-70
2024/02/24 09:07:03;;;;;;;14.52;2.33;;;11.10;99.90;;;;;;5032286;28;20060;-68
2024/02/24 09:09:29;;;;;;;12.43;2.47;;;11.10;99.90;;;;;;5032488;28;20092;-69
2024/02/24 09:11:55;;;;;;;14.80;2.95;;;11.10;99.90;;;;;;5032245;28;20088;-71
2024/02/24 09:14:21;;;;;;;10.45;2.42;;;11.10;99.90;;;;;;5032255;28;20088;-72
2024/02/24 09:16:46;;;;;;;16.35;2.13;;;11.10;99.90;;;;;;5033275;28;20080;-68
2024/02/24 09:19:12;;;;;;;13.77;1.92;;;11.20;99.90;;;;;;5033293;28;20026;-68
2024/02/24 09:21:38;;;;;;;11.63;1.77;;;11.20;99.90;;;;;;5033067;28;20103;-72
2024/02/24 09:24:04;;;;;;;13.52;2.40;;;11.20;99.90;;;;;;5033031;28;20022;-69
2024/02/24 09:26:30;;;;;;;10.63;2.33;;;11.30;99.90;;;;;;5034999;28;20036;-68
2024/02/24 09:28:55;;;;;;;14.32;2.05;;;11.30;99.90;;;;;;5035514;28;20025;-68
2024/02/24 09:31:27;;;;;;;13.80;2.08;;;11.30;99.90;;;;;;5034902;28;20036;-68
2024/02/24 09:33:55;;;;;;;17.15;1.83;;;11.40;99.90;;;;;;5035164;28;20037;-68
2024/02/24 09:36:21;;;;;;;11.85;2.15;;;11.40;99.90;;;;;;5035208;28;20473;-68
2024/02/24 09:38:47;;;;;;;18.90;3.85;;;11.40;99.90;;;;;;5034325;28;20029;-70
2024/02/24 09:41:13;;;;;;;12.60;2.17;;;11.50;99.90;;;;;;5034693;28;20060;-68
2024/02/24 09:43:39;;;;;;;18.50;2.95;;;11.50;99.90;;;;;;5033476;28;20485;-70
2024/02/24 09:46:08;;;;;;;12.20;2.05;;;11.50;99.90;;;;;;5031996;28;20056;-70
2024/02/24 09:48:34;;;;;;;8.25;1.90;;;11.60;99.90;;;;;;5032446;28;20060;-70
2024/02/24 09:50:59;;;;;;;13.45;2.80;;;11.70;99.90;;;;;;5034397;28;20057;-72
2024/02/24 09:53:25;;;;;;;11.93;2.05;;;11.70;99.90;;;;;;5035268;28;20458;-71
2024/02/24 09:55:53;;;;;;;12.27;1.70;;;11.80;99.90;;;;;;5034732;28;20074;-73
2024/02/24 09:58:21;;;;;;;16.80;2.60;;;11.90;99.90;;;;;;5034645;28;20030;-68
2024/02/24 10:00:51;;;;;;;12.68;2.13;;;12.00;99.90;;;;;;5034954;28;20033;-74
2024/02/24 10:03:18;;;;;;;16.38;2.20;;;12.10;99.90;;;;;;5034803;28;20032;-73
2024/02/24 10:05:48;;;;;;;11.48;1.98;;;12.10;99.90;;;;;;5033287;28;20040;-70
2024/02/24 10:08:14;;;;;;;17.95;1.88;;;12.20;99.90;;;;;;5033674;28;20382;-72
2024/02/24 10:10:40;;;;;;;10.57;1.70;;;12.20;99.90;;;;;;5033305;28;20022;-75
2024/02/24 10:13:06;;;;;;;14.35;2.35;;;12.30;99.90;;;;;;5034203;28;20473;-73
2024/02/24 10:15:34;;;;;;;13.15;2.13;;;12.30;99.90;;;;;;5034410;28;20025;-69
2024/02/24 10:18:00;;;;;;;10.57;1.92;;;12.30;99.90;;;;;;5034466;28;20478;-70
2024/02/24 10:20:27;;;;;;;11.38;1.95;;;12.40;99.90;;;;;;5033876;28;20363;-69
2024/02/24 10:22:53;;;;;;;7.15;1.55;;;12.40;99.90;;;;;;5034175;28;20486;-69
2024/02/24 10:25:19;;;;;;;10.63;2.40;;;12.40;99.90;;;;;;5031547;28;20038;-70
2024/02/24 10:27:46;;;;;;;11.57;2.20;;;12.50;99.90;;;;;;5031537;28;20041;-70
2024/02/24 10:30:13;;;;;;;11.73;1.88;;;12.50;99.90;;;;;;5034146;28;20053;-69
2024/02/24 10:32:39;;;;;;;13.13;2.05;;;12.50;99.90;;;;;;5034271;28;20109;-69
2024/02/24 10:35:06;;;;;;;14.27;1.90;;;12.50;99.90;;;;;;5034220;28;20037;-69
2024/02/24 10:37:36;;;;;;;12.70;2.28;;;12.50;99.90;;;;;;5034203;28;20028;-69
2024/02/24 10:40:03;;;;;;;10.63;1.42;;;12.50;99.90;;;;;;5034137;28;20077;-68
2024/02/24 10:42:29;;;;;;;13.15;2.25;;;12.50;99.90;;;;;;5033785;28;20038;-69
2024/02/24 10:44:56;;;;;;;11.30;1.90;;;12.40;99.90;;;;;;5034375;28;20355;-69
2024/02/24 10:47:23;;;;;;;13.73;2.08;;;12.40;99.90;;;;;;5033793;28;20025;-69
2024/02/24 10:49:49;;;;;;;8.82;1.63;;;12.40;99.60;;;;;;5033916;28;20025;-68
2024/02/24 10:52:17;;;;;;;8.85;1.40;;;12.40;99.90;;;;;;5034039;28;20036;-69
2024/02/24 10:54:45;;;;;;;10.25;1.77;;;12.30;98.90;;;;;;5032800;28;20032;-69
2024/02/24 10:57:11;;;;;;;5.70;1.30;;;12.30;97.90;;;;;;5033842;28;20044;-69
2024/02/24 10:59:37;;;;;;;12.63;2.40;;;12.30;97.90;;;;;;5033994;28;20474;-70
2024/02/24 11:02:05;;;;;;;9.05;1.60;;;12.30;97.70;;;;;;5033828;28;20049;-69
2024/02/24 11:04:35;;;;;;;9.98;1.63;;;12.30;98.30;;;;;;5033571;28;20059;-69
2024/02/24 11:07:01;;;;;;;9.63;1.55;;;12.30;98.30;;;;;;5033493;28;20026;-69
2024/02/24 11:09:38;;;;;;;10.68;1.52;;;12.40;98.70;;;;;;5033580;28;20014;-69
2024/02/24 11:12:07;;;;;;;8.88;1.80;;;12.40;98.50;;;;;;5033441;28;20031;-69
2024/02/24 11:14:37;;;;;;;11.57;1.83;;;12.50;98.30;;;;;;5033491;28;20036;-69
2024/02/24 11:17:06;;;;;;;12.68;2.10;;;12.50;98.20;;;;;;5033189;28;20021;-70
2024/02/24 11:19:45;;;;;;;10.60;1.58;;;12.50;98.60;;;;;;5033478;28;20025;-70
2024/02/24 11:22:30;;;;;;;9.70;1.88;;;12.60;98.80;;;;;;5033720;28;20033;-69
2024/02/24 11:25:03;;;;;;;9.23;1.40;;;12.60;98.10;;;;;;5033536;28;20549;-70
2024/02/24 11:27:31;;;;;;;17.00;2.03;;;12.60;98.40;;;;;;5033544;28;20021;-70
2024/02/24 11:29:58;;;;;;;12.25;1.98;;;12.60;98.60;;;;;;5033223;28;20168;-71
2024/02/24 11:32:24;;;;;;;8.05;1.52;;;12.60;98.70;;;;;;5033314;28;20540;-70
2024/02/24 11:34:50;;;;;;;12.38;2.13;;;12.60;97.40;;;;;;5033229;28;20038;-70
2024/02/24 11:37:18;;;;;;;16.05;2.65;;;12.60;97.00;;;;;;5033017;28;20033;-70
2024/02/24 11:39:44;;;;;;;12.25;1.73;;;12.60;97.90;;;;;;5040872;22;20057;-70
2024/02/24 11:42:13;;;;;;;10.18;1.90;;;12.60;98.10;;;;;;5033423;28;20131;-70
2024/02/24 11:44:44;;;;;;;14.13;2.95;;;12.60;98.40;;;;;;5033257;28;20031;-70
2024/02/24 11:47:10;;;;;;;13.82;1.92;;;12.70;98.70;;;;;;5033233;28;20530;-71
2024/02/24 11:49:47;;;;;;;7.00;1.35;;;12.70;98.90;;;;;;5033496;28;20021;-70
2024/02/24 11:52:15;;;;;;;12.02;2.45;;;12.70;98.30;;;;;;5033402;28;20028;-70
2024/02/24 11:54:43;;;;;;;11.10;2.05;;;12.70;98.00;;;;;;5032920;28;20029;-70
2024/02/24 11:57:10;;;;;;;13.65;1.88;;;12.70;98.30;;;;;;5033018;28;20044;-71
2024/02/24 11:59:38;;;;;;;13.32;1.80;;;12.70;98.20;;;;;;5033158;28;20060;-75
2024/02/24 12:02:04;;;;;;;13.00;2.38;;;12.80;98.50;;;;;;5031797;28;20034;-74
2024/02/24 12:04:30;;;;;;;15.30;2.08;;;12.80;98.60;;;;;;5032764;28;20021;-74
2024/02/24 12:06:56;;;;;;;12.52;2.05;;;12.90;98.90;;;;;;5033054;28;20036;-74
2024/02/24 12:09:22;;;;;;;13.00;2.28;;;13.00;99.00;;;;;;5032785;28;20021;-74
2024/02/24 12:11:48;;;;;;;8.73;1.60;;;13.00;99.00;;;;;;5032813;28;20527;-73
2024/02/24 12:14:14;;;;;;;9.65;1.60;;;13.10;97.60;;;;;;5032395;28;20054;-73
2024/02/24 12:16:41;;;;;;;11.02;2.22;;;13.10;98.50;;;;;;5032294;28;20079;-74
2024/02/24 12:19:09;;;;;;;13.77;2.00;;;13.20;98.10;;;;;;5031498;28;20021;-73
2024/02/24 12:21:34;;;;;;;11.85;2.10;;;13.20;98.10;;;;;;5029712;28;20033;-74
2024/02/24 12:24:00;;;;;;;17.75;2.45;;;13.30;98.20;;;;;;5029661;28;20032;-73
2024/02/24 12:26:27;;;;;;;13.80;2.10;;;13.30;98.80;;;;;;5030550;28;20029;-74
2024/02/24 12:28:52;;;;;;;12.63;2.22;;;13.30;98.80;;;;;;5031303;28;20022;-69
2024/02/24 12:31:18;;;;;;;14.90;2.08;;;13.40;98.80;;;;;;5031931;28;20040;-72
2024/02/24 12:33:45;;;;;;;11.65;1.77;;;13.40;99.00;;;;;;5029657;28;20026;-72
2024/02/24 12:36:12;;;;;;;14.98;2.22;;;13.50;99.20;;;;;;5028895;28;20076;-73